<?xml version="1.0" encoding="UTF-8" standalone="no" ?>
<gpx xmlns="http://www.topografix.com/GPX/1/1" xmlns:xsi="http://www.w3.org/2001/XMLSchema-instance" xsi:schemaLocation="http://www.topografix.com/GPX/1/1 http://www.topografix.com/GPX/1/1/gpx.xsd" version="1.1" creator="VisuGPX - https://www.visugpx.com">
  <metadata>
    <name>Source Du Lison Et Cascade Du Diable</name>
    <desc><![CDATA[Route created on plotaroute.com]]></desc>
  </metadata>
  <trk>
    <name><![CDATA[Source Du Lison Et Cascade Du Diable]]></name>
    <trkseg>
      <trkpt lat="46.96736" lon="6.01039">
        <ele>385</ele>
        <time>2022-06-05T00:00:00Z</time>
      </trkpt>
      <trkpt lat="46.9673" lon="6.01045">
        <ele>386</ele>
        <time>2022-06-05T00:00:06Z</time>
      </trkpt>
      <trkpt lat="46.96718" lon="6.01063">
        <ele>388</ele>
        <time>2022-06-05T00:00:19Z</time>
      </trkpt>
      <trkpt lat="46.96694" lon="6.01089">
        <ele>390</ele>
        <time>2022-06-05T00:00:44Z</time>
      </trkpt>
      <trkpt lat="46.96646" lon="6.01122">
        <ele>401</ele>
        <time>2022-06-05T00:01:26Z</time>
      </trkpt>
      <trkpt lat="46.96597" lon="6.01184">
        <ele>408</ele>
        <time>2022-06-05T00:02:18Z</time>
      </trkpt>
      <trkpt lat="46.96596" lon="6.01175">
        <ele>406</ele>
        <time>2022-06-05T00:02:23Z</time>
      </trkpt>
      <trkpt lat="46.966" lon="6.01166">
        <ele>404</ele>
        <time>2022-06-05T00:02:29Z</time>
      </trkpt>
      <trkpt lat="46.96598" lon="6.01159">
        <ele>405</ele>
        <time>2022-06-05T00:02:33Z</time>
      </trkpt>
      <trkpt lat="46.96594" lon="6.01149">
        <ele>406</ele>
        <time>2022-06-05T00:02:40Z</time>
      </trkpt>
      <trkpt lat="46.96563" lon="6.01175">
        <ele>417</ele>
        <time>2022-06-05T00:03:09Z</time>
      </trkpt>
      <trkpt lat="46.96594" lon="6.01149">
        <ele>406</ele>
        <time>2022-06-05T00:03:38Z</time>
      </trkpt>
      <trkpt lat="46.96598" lon="6.01159">
        <ele>405</ele>
        <time>2022-06-05T00:03:44Z</time>
      </trkpt>
      <trkpt lat="46.966" lon="6.01166">
        <ele>404</ele>
        <time>2022-06-05T00:03:48Z</time>
      </trkpt>
      <trkpt lat="46.96596" lon="6.01175">
        <ele>406</ele>
        <time>2022-06-05T00:03:54Z</time>
      </trkpt>
      <trkpt lat="46.96597" lon="6.01184">
        <ele>408</ele>
        <time>2022-06-05T00:03:59Z</time>
      </trkpt>
      <trkpt lat="46.96587" lon="6.01188">
        <ele>408</ele>
        <time>2022-06-05T00:04:07Z</time>
      </trkpt>
      <trkpt lat="46.96584" lon="6.01192">
        <ele>408</ele>
        <time>2022-06-05T00:04:11Z</time>
      </trkpt>
      <trkpt lat="46.96573" lon="6.01193">
        <ele>413</ele>
        <time>2022-06-05T00:04:19Z</time>
      </trkpt>
      <trkpt lat="46.96548" lon="6.01239">
        <ele>427</ele>
        <time>2022-06-05T00:04:51Z</time>
      </trkpt>
      <trkpt lat="46.96549" lon="6.01254">
        <ele>429</ele>
        <time>2022-06-05T00:05:00Z</time>
      </trkpt>
      <trkpt lat="46.96541" lon="6.01264">
        <ele>435</ele>
        <time>2022-06-05T00:05:08Z</time>
      </trkpt>
      <trkpt lat="46.96527" lon="6.01238">
        <ele>432</ele>
        <time>2022-06-05T00:05:26Z</time>
      </trkpt>
      <trkpt lat="46.96527" lon="6.01161">
        <ele>441</ele>
        <time>2022-06-05T00:06:08Z</time>
      </trkpt>
      <trkpt lat="46.96517" lon="6.01145">
        <ele>450</ele>
        <time>2022-06-05T00:06:20Z</time>
      </trkpt>
      <trkpt lat="46.96516" lon="6.01132">
        <ele>454</ele>
        <time>2022-06-05T00:06:27Z</time>
      </trkpt>
      <trkpt lat="46.96517" lon="6.01145">
        <ele>450</ele>
        <time>2022-06-05T00:06:34Z</time>
      </trkpt>
      <trkpt lat="46.96527" lon="6.01161">
        <ele>441</ele>
        <time>2022-06-05T00:06:45Z</time>
      </trkpt>
      <trkpt lat="46.96527" lon="6.01238">
        <ele>432</ele>
        <time>2022-06-05T00:07:27Z</time>
      </trkpt>
      <trkpt lat="46.96541" lon="6.01264">
        <ele>435</ele>
        <time>2022-06-05T00:07:45Z</time>
      </trkpt>
      <trkpt lat="46.96531" lon="6.01268">
        <ele>438</ele>
        <time>2022-06-05T00:07:53Z</time>
      </trkpt>
      <trkpt lat="46.96513" lon="6.01265">
        <ele>439</ele>
        <time>2022-06-05T00:08:07Z</time>
      </trkpt>
      <trkpt lat="46.96506" lon="6.01273">
        <ele>443</ele>
        <time>2022-06-05T00:08:15Z</time>
      </trkpt>
      <trkpt lat="46.9648" lon="6.01281">
        <ele>456</ele>
        <time>2022-06-05T00:08:36Z</time>
      </trkpt>
      <trkpt lat="46.9644" lon="6.01275">
        <ele>475</ele>
        <time>2022-06-05T00:09:08Z</time>
      </trkpt>
      <trkpt lat="46.96423" lon="6.01269">
        <ele>483</ele>
        <time>2022-06-05T00:09:22Z</time>
      </trkpt>
      <trkpt lat="46.96414" lon="6.01262">
        <ele>488</ele>
        <time>2022-06-05T00:09:30Z</time>
      </trkpt>
      <trkpt lat="46.96423" lon="6.01269">
        <ele>483</ele>
        <time>2022-06-05T00:09:38Z</time>
      </trkpt>
      <trkpt lat="46.9644" lon="6.01275">
        <ele>475</ele>
        <time>2022-06-05T00:09:52Z</time>
      </trkpt>
      <trkpt lat="46.9648" lon="6.01281">
        <ele>456</ele>
        <time>2022-06-05T00:10:24Z</time>
      </trkpt>
      <trkpt lat="46.96506" lon="6.01273">
        <ele>443</ele>
        <time>2022-06-05T00:10:46Z</time>
      </trkpt>
      <trkpt lat="46.96513" lon="6.01265">
        <ele>439</ele>
        <time>2022-06-05T00:10:53Z</time>
      </trkpt>
      <trkpt lat="46.96531" lon="6.01268">
        <ele>438</ele>
        <time>2022-06-05T00:11:07Z</time>
      </trkpt>
      <trkpt lat="46.96541" lon="6.01264">
        <ele>435</ele>
        <time>2022-06-05T00:11:15Z</time>
      </trkpt>
      <trkpt lat="46.96549" lon="6.01254">
        <ele>429</ele>
        <time>2022-06-05T00:11:23Z</time>
      </trkpt>
      <trkpt lat="46.96559" lon="6.01258">
        <ele>429</ele>
        <time>2022-06-05T00:11:32Z</time>
      </trkpt>
      <trkpt lat="46.96584" lon="6.01236">
        <ele>417</ele>
        <time>2022-06-05T00:11:55Z</time>
      </trkpt>
      <trkpt lat="46.9662" lon="6.01196">
        <ele>414</ele>
        <time>2022-06-05T00:12:32Z</time>
      </trkpt>
      <trkpt lat="46.96635" lon="6.01182">
        <ele>411</ele>
        <time>2022-06-05T00:12:46Z</time>
      </trkpt>
      <trkpt lat="46.96658" lon="6.01164">
        <ele>407</ele>
        <time>2022-06-05T00:13:06Z</time>
      </trkpt>
      <trkpt lat="46.96698" lon="6.01146">
        <ele>406</ele>
        <time>2022-06-05T00:13:40Z</time>
      </trkpt>
      <trkpt lat="46.96726" lon="6.01147">
        <ele>409</ele>
        <time>2022-06-05T00:14:02Z</time>
      </trkpt>
      <trkpt lat="46.96736" lon="6.01175">
        <ele>419</ele>
        <time>2022-06-05T00:14:20Z</time>
      </trkpt>
      <trkpt lat="46.96734" lon="6.01184">
        <ele>421</ele>
        <time>2022-06-05T00:14:25Z</time>
      </trkpt>
      <trkpt lat="46.96735" lon="6.01188">
        <ele>422</ele>
        <time>2022-06-05T00:14:28Z</time>
      </trkpt>
      <trkpt lat="46.96741" lon="6.01194">
        <ele>424</ele>
        <time>2022-06-05T00:14:33Z</time>
      </trkpt>
      <trkpt lat="46.96757" lon="6.01189">
        <ele>425</ele>
        <time>2022-06-05T00:14:46Z</time>
      </trkpt>
      <trkpt lat="46.96772" lon="6.01174">
        <ele>425</ele>
        <time>2022-06-05T00:15:00Z</time>
      </trkpt>
      <trkpt lat="46.96804" lon="6.01126">
        <ele>417</ele>
        <time>2022-06-05T00:15:38Z</time>
      </trkpt>
      <trkpt lat="46.96807" lon="6.01119">
        <ele>416</ele>
        <time>2022-06-05T00:15:42Z</time>
      </trkpt>
      <trkpt lat="46.96817" lon="6.01121">
        <ele>419</ele>
        <time>2022-06-05T00:15:50Z</time>
      </trkpt>
      <trkpt lat="46.96847" lon="6.01114">
        <ele>426</ele>
        <time>2022-06-05T00:16:15Z</time>
      </trkpt>
      <trkpt lat="46.96854" lon="6.0111">
        <ele>427</ele>
        <time>2022-06-05T00:16:20Z</time>
      </trkpt>
      <trkpt lat="46.96867" lon="6.0109">
        <ele>426</ele>
        <time>2022-06-05T00:16:36Z</time>
      </trkpt>
      <trkpt lat="46.9688" lon="6.01056">
        <ele>425</ele>
        <time>2022-06-05T00:16:57Z</time>
      </trkpt>
      <trkpt lat="46.96884" lon="6.01043">
        <ele>424</ele>
        <time>2022-06-05T00:17:05Z</time>
      </trkpt>
      <trkpt lat="46.96896" lon="6.01025">
        <ele>425</ele>
        <time>2022-06-05T00:17:18Z</time>
      </trkpt>
      <trkpt lat="46.96926" lon="6.00993">
        <ele>430</ele>
        <time>2022-06-05T00:17:48Z</time>
      </trkpt>
      <trkpt lat="46.9694" lon="6.00992">
        <ele>431</ele>
        <time>2022-06-05T00:18:00Z</time>
      </trkpt>
      <trkpt lat="46.9694" lon="6.01014">
        <ele>435</ele>
        <time>2022-06-05T00:18:12Z</time>
      </trkpt>
      <trkpt lat="46.96936" lon="6.01027">
        <ele>437</ele>
        <time>2022-06-05T00:18:19Z</time>
      </trkpt>
      <trkpt lat="46.96939" lon="6.01051">
        <ele>442</ele>
        <time>2022-06-05T00:18:33Z</time>
      </trkpt>
      <trkpt lat="46.96937" lon="6.0109">
        <ele>449</ele>
        <time>2022-06-05T00:18:54Z</time>
      </trkpt>
      <trkpt lat="46.96932" lon="6.01152">
        <ele>464</ele>
        <time>2022-06-05T00:19:28Z</time>
      </trkpt>
      <trkpt lat="46.96929" lon="6.01167">
        <ele>467</ele>
        <time>2022-06-05T00:19:37Z</time>
      </trkpt>
      <trkpt lat="46.96923" lon="6.01177">
        <ele>468</ele>
        <time>2022-06-05T00:19:44Z</time>
      </trkpt>
      <trkpt lat="46.9691" lon="6.01182">
        <ele>465</ele>
        <time>2022-06-05T00:19:55Z</time>
      </trkpt>
      <trkpt lat="46.96897" lon="6.01198">
        <ele>465</ele>
        <time>2022-06-05T00:20:09Z</time>
      </trkpt>
      <trkpt lat="46.96881" lon="6.01213">
        <ele>463</ele>
        <time>2022-06-05T00:20:24Z</time>
      </trkpt>
      <trkpt lat="46.96869" lon="6.01229">
        <ele>463</ele>
        <time>2022-06-05T00:20:36Z</time>
      </trkpt>
      <trkpt lat="46.96863" lon="6.01243">
        <ele>465</ele>
        <time>2022-06-05T00:20:46Z</time>
      </trkpt>
      <trkpt lat="46.96854" lon="6.01257">
        <ele>466</ele>
        <time>2022-06-05T00:20:56Z</time>
      </trkpt>
      <trkpt lat="46.9684" lon="6.0129">
        <ele>470</ele>
        <time>2022-06-05T00:21:18Z</time>
      </trkpt>
      <trkpt lat="46.96832" lon="6.0133">
        <ele>478</ele>
        <time>2022-06-05T00:21:40Z</time>
      </trkpt>
      <trkpt lat="46.96818" lon="6.01369">
        <ele>487</ele>
        <time>2022-06-05T00:22:04Z</time>
      </trkpt>
      <trkpt lat="46.96816" lon="6.01386">
        <ele>492</ele>
        <time>2022-06-05T00:22:14Z</time>
      </trkpt>
      <trkpt lat="46.96803" lon="6.01412">
        <ele>496</ele>
        <time>2022-06-05T00:22:31Z</time>
      </trkpt>
      <trkpt lat="46.96798" lon="6.01429">
        <ele>500</ele>
        <time>2022-06-05T00:22:42Z</time>
      </trkpt>
      <trkpt lat="46.96792" lon="6.01462">
        <ele>511</ele>
        <time>2022-06-05T00:23:00Z</time>
      </trkpt>
      <trkpt lat="46.96793" lon="6.01474">
        <ele>516</ele>
        <time>2022-06-05T00:23:07Z</time>
      </trkpt>
      <trkpt lat="46.96796" lon="6.01481">
        <ele>520</ele>
        <time>2022-06-05T00:23:12Z</time>
      </trkpt>
      <trkpt lat="46.96789" lon="6.01497">
        <ele>524</ele>
        <time>2022-06-05T00:23:22Z</time>
      </trkpt>
      <trkpt lat="46.96779" lon="6.01513">
        <ele>527</ele>
        <time>2022-06-05T00:23:34Z</time>
      </trkpt>
      <trkpt lat="46.96767" lon="6.01524">
        <ele>527</ele>
        <time>2022-06-05T00:23:45Z</time>
      </trkpt>
      <trkpt lat="46.96756" lon="6.01526">
        <ele>525</ele>
        <time>2022-06-05T00:23:54Z</time>
      </trkpt>
      <trkpt lat="46.96748" lon="6.01522">
        <ele>524</ele>
        <time>2022-06-05T00:24:01Z</time>
      </trkpt>
      <trkpt lat="46.96735" lon="6.01512">
        <ele>524</ele>
        <time>2022-06-05T00:24:12Z</time>
      </trkpt>
      <trkpt lat="46.96683" lon="6.01455">
        <ele>518</ele>
        <time>2022-06-05T00:25:04Z</time>
      </trkpt>
      <trkpt lat="46.96659" lon="6.01436">
        <ele>516</ele>
        <time>2022-06-05T00:25:26Z</time>
      </trkpt>
      <trkpt lat="46.96556" lon="6.01409">
        <ele>516</ele>
        <time>2022-06-05T00:26:50Z</time>
      </trkpt>
      <trkpt lat="46.96527" lon="6.01408">
        <ele>512</ele>
        <time>2022-06-05T00:27:13Z</time>
      </trkpt>
      <trkpt lat="46.9651" lon="6.01415">
        <ele>514</ele>
        <time>2022-06-05T00:27:27Z</time>
      </trkpt>
      <trkpt lat="46.96506" lon="6.01427">
        <ele>518</ele>
        <time>2022-06-05T00:27:35Z</time>
      </trkpt>
      <trkpt lat="46.96496" lon="6.0147">
        <ele>530</ele>
        <time>2022-06-05T00:28:00Z</time>
      </trkpt>
      <trkpt lat="46.96482" lon="6.01495">
        <ele>536</ele>
        <time>2022-06-05T00:28:17Z</time>
      </trkpt>
      <trkpt lat="46.96453" lon="6.01522">
        <ele>538</ele>
        <time>2022-06-05T00:28:45Z</time>
      </trkpt>
      <trkpt lat="46.96432" lon="6.01531">
        <ele>538</ele>
        <time>2022-06-05T00:29:03Z</time>
      </trkpt>
      <trkpt lat="46.96421" lon="6.01529">
        <ele>537</ele>
        <time>2022-06-05T00:29:11Z</time>
      </trkpt>
      <trkpt lat="46.96391" lon="6.01508">
        <ele>531</ele>
        <time>2022-06-05T00:29:38Z</time>
      </trkpt>
      <trkpt lat="46.96384" lon="6.01506">
        <ele>530</ele>
        <time>2022-06-05T00:29:44Z</time>
      </trkpt>
      <trkpt lat="46.96376" lon="6.01508">
        <ele>531</ele>
        <time>2022-06-05T00:29:50Z</time>
      </trkpt>
      <trkpt lat="46.96367" lon="6.01517">
        <ele>532</ele>
        <time>2022-06-05T00:29:59Z</time>
      </trkpt>
      <trkpt lat="46.96363" lon="6.0153">
        <ele>534</ele>
        <time>2022-06-05T00:30:07Z</time>
      </trkpt>
      <trkpt lat="46.9636" lon="6.01545">
        <ele>537</ele>
        <time>2022-06-05T00:30:15Z</time>
      </trkpt>
      <trkpt lat="46.96361" lon="6.0156">
        <ele>540</ele>
        <time>2022-06-05T00:30:23Z</time>
      </trkpt>
      <trkpt lat="46.96369" lon="6.01573">
        <ele>543</ele>
        <time>2022-06-05T00:30:33Z</time>
      </trkpt>
      <trkpt lat="46.9638" lon="6.0158">
        <ele>545</ele>
        <time>2022-06-05T00:30:43Z</time>
      </trkpt>
      <trkpt lat="46.96403" lon="6.0158">
        <ele>546</ele>
        <time>2022-06-05T00:31:02Z</time>
      </trkpt>
      <trkpt lat="46.96486" lon="6.01574">
        <ele>548</ele>
        <time>2022-06-05T00:32:08Z</time>
      </trkpt>
      <trkpt lat="46.96504" lon="6.01566">
        <ele>549</ele>
        <time>2022-06-05T00:32:23Z</time>
      </trkpt>
      <trkpt lat="46.96532" lon="6.01541">
        <ele>551</ele>
        <time>2022-06-05T00:32:49Z</time>
      </trkpt>
      <trkpt lat="46.96537" lon="6.01529">
        <ele>550</ele>
        <time>2022-06-05T00:32:57Z</time>
      </trkpt>
      <trkpt lat="46.96562" lon="6.01504">
        <ele>551</ele>
        <time>2022-06-05T00:33:21Z</time>
      </trkpt>
      <trkpt lat="46.96575" lon="6.015">
        <ele>553</ele>
        <time>2022-06-05T00:33:32Z</time>
      </trkpt>
      <trkpt lat="46.96587" lon="6.01503">
        <ele>554</ele>
        <time>2022-06-05T00:33:41Z</time>
      </trkpt>
      <trkpt lat="46.96597" lon="6.01531">
        <ele>557</ele>
        <time>2022-06-05T00:33:59Z</time>
      </trkpt>
      <trkpt lat="46.96616" lon="6.01576">
        <ele>563</ele>
        <time>2022-06-05T00:34:28Z</time>
      </trkpt>
      <trkpt lat="46.96621" lon="6.01611">
        <ele>571</ele>
        <time>2022-06-05T00:34:47Z</time>
      </trkpt>
      <trkpt lat="46.96618" lon="6.01629">
        <ele>577</ele>
        <time>2022-06-05T00:34:58Z</time>
      </trkpt>
      <trkpt lat="46.96631" lon="6.0167">
        <ele>585</ele>
        <time>2022-06-05T00:35:23Z</time>
      </trkpt>
      <trkpt lat="46.96647" lon="6.01698">
        <ele>587</ele>
        <time>2022-06-05T00:35:43Z</time>
      </trkpt>
      <trkpt lat="46.96653" lon="6.01714">
        <ele>588</ele>
        <time>2022-06-05T00:35:52Z</time>
      </trkpt>
      <trkpt lat="46.96679" lon="6.01766">
        <ele>594</ele>
        <time>2022-06-05T00:36:27Z</time>
      </trkpt>
      <trkpt lat="46.96697" lon="6.01783">
        <ele>596</ele>
        <time>2022-06-05T00:36:45Z</time>
      </trkpt>
      <trkpt lat="46.9676" lon="6.01801">
        <ele>596</ele>
        <time>2022-06-05T00:37:36Z</time>
      </trkpt>
      <trkpt lat="46.96787" lon="6.01825">
        <ele>600</ele>
        <time>2022-06-05T00:38:02Z</time>
      </trkpt>
      <trkpt lat="46.96806" lon="6.01852">
        <ele>604</ele>
        <time>2022-06-05T00:38:23Z</time>
      </trkpt>
      <trkpt lat="46.96823" lon="6.01886">
        <ele>608</ele>
        <time>2022-06-05T00:38:46Z</time>
      </trkpt>
      <trkpt lat="46.96837" lon="6.01925">
        <ele>613</ele>
        <time>2022-06-05T00:39:10Z</time>
      </trkpt>
      <trkpt lat="46.96855" lon="6.01964">
        <ele>624</ele>
        <time>2022-06-05T00:39:36Z</time>
      </trkpt>
      <trkpt lat="46.96778" lon="6.01887">
        <ele>617</ele>
        <time>2022-06-05T00:40:50Z</time>
      </trkpt>
      <trkpt lat="46.96714" lon="6.0187">
        <ele>622</ele>
        <time>2022-06-05T00:41:42Z</time>
      </trkpt>
      <trkpt lat="46.96628" lon="6.01908">
        <ele>650</ele>
        <time>2022-06-05T00:42:54Z</time>
      </trkpt>
      <trkpt lat="46.96492" lon="6.02071">
        <ele>680</ele>
        <time>2022-06-05T00:45:15Z</time>
      </trkpt>
      <trkpt lat="46.96465" lon="6.02151">
        <ele>680</ele>
        <time>2022-06-05T00:46:03Z</time>
      </trkpt>
      <trkpt lat="46.96397" lon="6.02118">
        <ele>668</ele>
        <time>2022-06-05T00:47:01Z</time>
      </trkpt>
      <trkpt lat="46.96214" lon="6.01883">
        <ele>644</ele>
        <time>2022-06-05T00:50:16Z</time>
      </trkpt>
      <trkpt lat="46.96191" lon="6.01872">
        <ele>640</ele>
        <time>2022-06-05T00:50:35Z</time>
      </trkpt>
      <trkpt lat="46.96162" lon="6.0178">
        <ele>635</ele>
        <time>2022-06-05T00:51:30Z</time>
      </trkpt>
      <trkpt lat="46.96152" lon="6.01768">
        <ele>634</ele>
        <time>2022-06-05T00:51:41Z</time>
      </trkpt>
      <trkpt lat="46.96137" lon="6.01757">
        <ele>634</ele>
        <time>2022-06-05T00:51:54Z</time>
      </trkpt>
      <trkpt lat="46.961" lon="6.01733">
        <ele>633</ele>
        <time>2022-06-05T00:52:27Z</time>
      </trkpt>
      <trkpt lat="46.96071" lon="6.01698">
        <ele>632</ele>
        <time>2022-06-05T00:52:58Z</time>
      </trkpt>
      <trkpt lat="46.96034" lon="6.01643">
        <ele>630</ele>
        <time>2022-06-05T00:53:40Z</time>
      </trkpt>
      <trkpt lat="46.96" lon="6.01604">
        <ele>628</ele>
        <time>2022-06-05T00:54:14Z</time>
      </trkpt>
      <trkpt lat="46.9593" lon="6.01535">
        <ele>624</ele>
        <time>2022-06-05T00:55:22Z</time>
      </trkpt>
      <trkpt lat="46.95889" lon="6.0147">
        <ele>620</ele>
        <time>2022-06-05T00:56:10Z</time>
      </trkpt>
      <trkpt lat="46.95852" lon="6.01405">
        <ele>617</ele>
        <time>2022-06-05T00:56:57Z</time>
      </trkpt>
      <trkpt lat="46.95808" lon="6.01308">
        <ele>612</ele>
        <time>2022-06-05T00:58:00Z</time>
      </trkpt>
      <trkpt lat="46.95778" lon="6.01265">
        <ele>611</ele>
        <time>2022-06-05T00:58:34Z</time>
      </trkpt>
      <trkpt lat="46.95752" lon="6.01239">
        <ele>611</ele>
        <time>2022-06-05T00:58:59Z</time>
      </trkpt>
      <trkpt lat="46.95727" lon="6.01226">
        <ele>612</ele>
        <time>2022-06-05T00:59:20Z</time>
      </trkpt>
      <trkpt lat="46.95706" lon="6.01181">
        <ele>612</ele>
        <time>2022-06-05T00:59:50Z</time>
      </trkpt>
      <trkpt lat="46.95699" lon="6.01167">
        <ele>613</ele>
        <time>2022-06-05T01:00:00Z</time>
      </trkpt>
      <trkpt lat="46.95686" lon="6.0115">
        <ele>615</ele>
        <time>2022-06-05T01:00:14Z</time>
      </trkpt>
      <trkpt lat="46.9566" lon="6.01127">
        <ele>619</ele>
        <time>2022-06-05T01:00:38Z</time>
      </trkpt>
      <trkpt lat="46.95672" lon="6.01108">
        <ele>620</ele>
        <time>2022-06-05T01:00:53Z</time>
      </trkpt>
      <trkpt lat="46.95693" lon="6.01085">
        <ele>619</ele>
        <time>2022-06-05T01:01:13Z</time>
      </trkpt>
      <trkpt lat="46.95694" lon="6.0108">
        <ele>619</ele>
        <time>2022-06-05T01:01:16Z</time>
      </trkpt>
      <trkpt lat="46.95695" lon="6.01075">
        <ele>619</ele>
        <time>2022-06-05T01:01:19Z</time>
      </trkpt>
      <trkpt lat="46.95682" lon="6.01045">
        <ele>621</ele>
        <time>2022-06-05T01:01:38Z</time>
      </trkpt>
      <trkpt lat="46.95682" lon="6.00998">
        <ele>622</ele>
        <time>2022-06-05T01:02:04Z</time>
      </trkpt>
      <trkpt lat="46.9568" lon="6.00988">
        <ele>622</ele>
        <time>2022-06-05T01:02:10Z</time>
      </trkpt>
      <trkpt lat="46.95675" lon="6.00982">
        <ele>623</ele>
        <time>2022-06-05T01:02:15Z</time>
      </trkpt>
      <trkpt lat="46.9567" lon="6.00978">
        <ele>623</ele>
        <time>2022-06-05T01:02:20Z</time>
      </trkpt>
      <trkpt lat="46.9566" lon="6.00979">
        <ele>624</ele>
        <time>2022-06-05T01:02:28Z</time>
      </trkpt>
      <trkpt lat="46.95652" lon="6.00978">
        <ele>624</ele>
        <time>2022-06-05T01:02:34Z</time>
      </trkpt>
      <trkpt lat="46.95643" lon="6.00974">
        <ele>624</ele>
        <time>2022-06-05T01:02:41Z</time>
      </trkpt>
      <trkpt lat="46.95616" lon="6.00939">
        <ele>624</ele>
        <time>2022-06-05T01:03:10Z</time>
      </trkpt>
      <trkpt lat="46.95595" lon="6.00892">
        <ele>623</ele>
        <time>2022-06-05T01:03:41Z</time>
      </trkpt>
      <trkpt lat="46.95568" lon="6.00852">
        <ele>622</ele>
        <time>2022-06-05T01:04:12Z</time>
      </trkpt>
      <trkpt lat="46.95558" lon="6.00847">
        <ele>622</ele>
        <time>2022-06-05T01:04:20Z</time>
      </trkpt>
      <trkpt lat="46.95529" lon="6.00819">
        <ele>622</ele>
        <time>2022-06-05T01:04:48Z</time>
      </trkpt>
      <trkpt lat="46.95505" lon="6.00801">
        <ele>622</ele>
        <time>2022-06-05T01:05:10Z</time>
      </trkpt>
      <trkpt lat="46.95427" lon="6.00721">
        <ele>617</ele>
        <time>2022-06-05T01:06:26Z</time>
      </trkpt>
      <trkpt lat="46.95289" lon="6.00562">
        <ele>612</ele>
        <time>2022-06-05T01:08:47Z</time>
      </trkpt>
      <trkpt lat="46.95253" lon="6.00525">
        <ele>610</ele>
        <time>2022-06-05T01:09:22Z</time>
      </trkpt>
      <trkpt lat="46.95174" lon="6.00453">
        <ele>610</ele>
        <time>2022-06-05T01:10:37Z</time>
      </trkpt>
      <trkpt lat="46.95052" lon="6.0035">
        <ele>609</ele>
        <time>2022-06-05T01:12:30Z</time>
      </trkpt>
      <trkpt lat="46.95032" lon="6.00327">
        <ele>610</ele>
        <time>2022-06-05T01:12:50Z</time>
      </trkpt>
      <trkpt lat="46.95025" lon="6.00314">
        <ele>609</ele>
        <time>2022-06-05T01:12:59Z</time>
      </trkpt>
      <trkpt lat="46.94976" lon="6.00125">
        <ele>602</ele>
        <time>2022-06-05T01:14:50Z</time>
      </trkpt>
      <trkpt lat="46.94969" lon="6.00091">
        <ele>602</ele>
        <time>2022-06-05T01:15:09Z</time>
      </trkpt>
      <trkpt lat="46.9497" lon="6.00076">
        <ele>602</ele>
        <time>2022-06-05T01:15:17Z</time>
      </trkpt>
      <trkpt lat="46.94973" lon="6.0006">
        <ele>602</ele>
        <time>2022-06-05T01:15:26Z</time>
      </trkpt>
      <trkpt lat="46.9498" lon="6.00036">
        <ele>602</ele>
        <time>2022-06-05T01:15:40Z</time>
      </trkpt>
      <trkpt lat="46.94991" lon="6.00014">
        <ele>601</ele>
        <time>2022-06-05T01:15:55Z</time>
      </trkpt>
      <trkpt lat="46.94997" lon="5.99957">
        <ele>597</ele>
        <time>2022-06-05T01:16:27Z</time>
      </trkpt>
      <trkpt lat="46.94995" lon="5.99916">
        <ele>593</ele>
        <time>2022-06-05T01:16:49Z</time>
      </trkpt>
      <trkpt lat="46.94986" lon="5.99886">
        <ele>589</ele>
        <time>2022-06-05T01:17:07Z</time>
      </trkpt>
      <trkpt lat="46.94973" lon="5.99857">
        <ele>584</ele>
        <time>2022-06-05T01:17:26Z</time>
      </trkpt>
      <trkpt lat="46.94945" lon="5.99794">
        <ele>579</ele>
        <time>2022-06-05T01:18:07Z</time>
      </trkpt>
      <trkpt lat="46.94866" lon="5.99616">
        <ele>590</ele>
        <time>2022-06-05T01:20:04Z</time>
      </trkpt>
      <trkpt lat="46.94747" lon="5.99385">
        <ele>589</ele>
        <time>2022-06-05T01:22:42Z</time>
      </trkpt>
      <trkpt lat="46.94684" lon="5.99283">
        <ele>593</ele>
        <time>2022-06-05T01:23:58Z</time>
      </trkpt>
      <trkpt lat="46.94666" lon="5.99257">
        <ele>595</ele>
        <time>2022-06-05T01:24:17Z</time>
      </trkpt>
      <trkpt lat="46.94627" lon="5.99191">
        <ele>596</ele>
        <time>2022-06-05T01:25:05Z</time>
      </trkpt>
      <trkpt lat="46.94613" lon="5.99153">
        <ele>597</ele>
        <time>2022-06-05T01:25:29Z</time>
      </trkpt>
      <trkpt lat="46.94615" lon="5.99134">
        <ele>598</ele>
        <time>2022-06-05T01:25:39Z</time>
      </trkpt>
      <trkpt lat="46.94607" lon="5.99122">
        <ele>598</ele>
        <time>2022-06-05T01:25:49Z</time>
      </trkpt>
      <trkpt lat="46.94615" lon="5.99134">
        <ele>598</ele>
        <time>2022-06-05T01:25:58Z</time>
      </trkpt>
      <trkpt lat="46.94616" lon="5.99122">
        <ele>599</ele>
        <time>2022-06-05T01:26:05Z</time>
      </trkpt>
      <trkpt lat="46.9463" lon="5.99093">
        <ele>601</ele>
        <time>2022-06-05T01:26:24Z</time>
      </trkpt>
      <trkpt lat="46.94674" lon="5.99071">
        <ele>603</ele>
        <time>2022-06-05T01:27:02Z</time>
      </trkpt>
      <trkpt lat="46.9474" lon="5.99046">
        <ele>606</ele>
        <time>2022-06-05T01:27:56Z</time>
      </trkpt>
      <trkpt lat="46.94762" lon="5.99046">
        <ele>607</ele>
        <time>2022-06-05T01:28:14Z</time>
      </trkpt>
      <trkpt lat="46.9482" lon="5.99062">
        <ele>610</ele>
        <time>2022-06-05T01:29:01Z</time>
      </trkpt>
      <trkpt lat="46.94845" lon="5.99079">
        <ele>609</ele>
        <time>2022-06-05T01:29:23Z</time>
      </trkpt>
      <trkpt lat="46.949" lon="5.99136">
        <ele>607</ele>
        <time>2022-06-05T01:30:17Z</time>
      </trkpt>
      <trkpt lat="46.94915" lon="5.99145">
        <ele>606</ele>
        <time>2022-06-05T01:30:30Z</time>
      </trkpt>
      <trkpt lat="46.94926" lon="5.99147">
        <ele>606</ele>
        <time>2022-06-05T01:30:39Z</time>
      </trkpt>
      <trkpt lat="46.94937" lon="5.99144">
        <ele>607</ele>
        <time>2022-06-05T01:30:48Z</time>
      </trkpt>
      <trkpt lat="46.94949" lon="5.99137">
        <ele>607</ele>
        <time>2022-06-05T01:30:58Z</time>
      </trkpt>
      <trkpt lat="46.94997" lon="5.99088">
        <ele>607</ele>
        <time>2022-06-05T01:31:45Z</time>
      </trkpt>
      <trkpt lat="46.95011" lon="5.99077">
        <ele>609</ele>
        <time>2022-06-05T01:31:58Z</time>
      </trkpt>
      <trkpt lat="46.95045" lon="5.99061">
        <ele>612</ele>
        <time>2022-06-05T01:32:27Z</time>
      </trkpt>
      <trkpt lat="46.95059" lon="5.9905">
        <ele>613</ele>
        <time>2022-06-05T01:32:40Z</time>
      </trkpt>
      <trkpt lat="46.95073" lon="5.99028">
        <ele>614</ele>
        <time>2022-06-05T01:32:56Z</time>
      </trkpt>
      <trkpt lat="46.9509" lon="5.99001">
        <ele>615</ele>
        <time>2022-06-05T01:33:16Z</time>
      </trkpt>
      <trkpt lat="46.95097" lon="5.98994">
        <ele>616</ele>
        <time>2022-06-05T01:33:23Z</time>
      </trkpt>
      <trkpt lat="46.95109" lon="5.98989">
        <ele>617</ele>
        <time>2022-06-05T01:33:33Z</time>
      </trkpt>
      <trkpt lat="46.95141" lon="5.98983">
        <ele>619</ele>
        <time>2022-06-05T01:33:58Z</time>
      </trkpt>
      <trkpt lat="46.9516" lon="5.98973">
        <ele>619</ele>
        <time>2022-06-05T01:34:15Z</time>
      </trkpt>
      <trkpt lat="46.95179" lon="5.98958">
        <ele>620</ele>
        <time>2022-06-05T01:34:32Z</time>
      </trkpt>
      <trkpt lat="46.95199" lon="5.98936">
        <ele>621</ele>
        <time>2022-06-05T01:34:52Z</time>
      </trkpt>
      <trkpt lat="46.95213" lon="5.98916">
        <ele>621</ele>
        <time>2022-06-05T01:35:08Z</time>
      </trkpt>
      <trkpt lat="46.95229" lon="5.98883">
        <ele>623</ele>
        <time>2022-06-05T01:35:30Z</time>
      </trkpt>
      <trkpt lat="46.95264" lon="5.98831">
        <ele>623</ele>
        <time>2022-06-05T01:36:10Z</time>
      </trkpt>
      <trkpt lat="46.95297" lon="5.98786">
        <ele>625</ele>
        <time>2022-06-05T01:36:46Z</time>
      </trkpt>
      <trkpt lat="46.95319" lon="5.98765">
        <ele>625</ele>
        <time>2022-06-05T01:37:07Z</time>
      </trkpt>
      <trkpt lat="46.95359" lon="5.98734">
        <ele>625</ele>
        <time>2022-06-05T01:37:44Z</time>
      </trkpt>
      <trkpt lat="46.95375" lon="5.98727">
        <ele>625</ele>
        <time>2022-06-05T01:37:56Z</time>
      </trkpt>
      <trkpt lat="46.95398" lon="5.98719">
        <ele>626</ele>
        <time>2022-06-05T01:38:16Z</time>
      </trkpt>
      <trkpt lat="46.95416" lon="5.98718">
        <ele>626</ele>
        <time>2022-06-05T01:38:30Z</time>
      </trkpt>
      <trkpt lat="46.95435" lon="5.98719">
        <ele>627</ele>
        <time>2022-06-05T01:38:45Z</time>
      </trkpt>
      <trkpt lat="46.95456" lon="5.98709">
        <ele>628</ele>
        <time>2022-06-05T01:39:03Z</time>
      </trkpt>
      <trkpt lat="46.95461" lon="5.98713">
        <ele>629</ele>
        <time>2022-06-05T01:39:08Z</time>
      </trkpt>
      <trkpt lat="46.95474" lon="5.98716">
        <ele>629</ele>
        <time>2022-06-05T01:39:18Z</time>
      </trkpt>
      <trkpt lat="46.95509" lon="5.98738">
        <ele>631</ele>
        <time>2022-06-05T01:39:49Z</time>
      </trkpt>
      <trkpt lat="46.95565" lon="5.9878">
        <ele>634</ele>
        <time>2022-06-05T01:40:39Z</time>
      </trkpt>
      <trkpt lat="46.95587" lon="5.9878">
        <ele>635</ele>
        <time>2022-06-05T01:40:57Z</time>
      </trkpt>
      <trkpt lat="46.956" lon="5.98782">
        <ele>636</ele>
        <time>2022-06-05T01:41:07Z</time>
      </trkpt>
      <trkpt lat="46.95641" lon="5.98799">
        <ele>638</ele>
        <time>2022-06-05T01:41:41Z</time>
      </trkpt>
      <trkpt lat="46.95657" lon="5.98816">
        <ele>638</ele>
        <time>2022-06-05T01:41:57Z</time>
      </trkpt>
      <trkpt lat="46.95682" lon="5.98835">
        <ele>639</ele>
        <time>2022-06-05T01:42:20Z</time>
      </trkpt>
      <trkpt lat="46.95705" lon="5.98862">
        <ele>640</ele>
        <time>2022-06-05T01:42:43Z</time>
      </trkpt>
      <trkpt lat="46.95735" lon="5.989">
        <ele>641</ele>
        <time>2022-06-05T01:43:15Z</time>
      </trkpt>
      <trkpt lat="46.95784" lon="5.98958">
        <ele>644</ele>
        <time>2022-06-05T01:44:05Z</time>
      </trkpt>
      <trkpt lat="46.95848" lon="5.99019">
        <ele>645</ele>
        <time>2022-06-05T01:45:07Z</time>
      </trkpt>
      <trkpt lat="46.95925" lon="5.99105">
        <ele>653</ele>
        <time>2022-06-05T01:46:24Z</time>
      </trkpt>
      <trkpt lat="46.95978" lon="5.9917">
        <ele>656</ele>
        <time>2022-06-05T01:47:20Z</time>
      </trkpt>
      <trkpt lat="46.96006" lon="5.99218">
        <ele>656</ele>
        <time>2022-06-05T01:47:54Z</time>
      </trkpt>
      <trkpt lat="46.96025" lon="5.99246">
        <ele>657</ele>
        <time>2022-06-05T01:48:16Z</time>
      </trkpt>
      <trkpt lat="46.96042" lon="5.99267">
        <ele>658</ele>
        <time>2022-06-05T01:48:34Z</time>
      </trkpt>
      <trkpt lat="46.96121" lon="5.99334">
        <ele>663</ele>
        <time>2022-06-05T01:49:47Z</time>
      </trkpt>
      <trkpt lat="46.96177" lon="5.99372">
        <ele>664</ele>
        <time>2022-06-05T01:50:37Z</time>
      </trkpt>
      <trkpt lat="46.96215" lon="5.99393">
        <ele>669</ele>
        <time>2022-06-05T01:51:09Z</time>
      </trkpt>
      <trkpt lat="46.96239" lon="5.99404">
        <ele>673</ele>
        <time>2022-06-05T01:51:29Z</time>
      </trkpt>
      <trkpt lat="46.96281" lon="5.99443">
        <ele>671</ele>
        <time>2022-06-05T01:52:09Z</time>
      </trkpt>
      <trkpt lat="46.96304" lon="5.99487">
        <ele>669</ele>
        <time>2022-06-05T01:52:39Z</time>
      </trkpt>
      <trkpt lat="46.96322" lon="5.99508">
        <ele>671</ele>
        <time>2022-06-05T01:52:58Z</time>
      </trkpt>
      <trkpt lat="46.96355" lon="5.99548">
        <ele>671</ele>
        <time>2022-06-05T01:53:32Z</time>
      </trkpt>
      <trkpt lat="46.96389" lon="5.99601">
        <ele>673</ele>
        <time>2022-06-05T01:54:12Z</time>
      </trkpt>
      <trkpt lat="46.96413" lon="5.99646">
        <ele>678</ele>
        <time>2022-06-05T01:54:43Z</time>
      </trkpt>
      <trkpt lat="46.96442" lon="5.99764">
        <ele>664</ele>
        <time>2022-06-05T01:55:51Z</time>
      </trkpt>
      <trkpt lat="46.96465" lon="5.99811">
        <ele>661</ele>
        <time>2022-06-05T01:56:23Z</time>
      </trkpt>
      <trkpt lat="46.96465" lon="5.99895">
        <ele>667</ele>
        <time>2022-06-05T01:57:09Z</time>
      </trkpt>
      <trkpt lat="46.96414" lon="5.9999">
        <ele>668</ele>
        <time>2022-06-05T01:58:16Z</time>
      </trkpt>
      <trkpt lat="46.96404" lon="6.00074">
        <ele>664</ele>
        <time>2022-06-05T01:59:02Z</time>
      </trkpt>
      <trkpt lat="46.96404" lon="6.00134">
        <ele>664</ele>
        <time>2022-06-05T01:59:35Z</time>
      </trkpt>
      <trkpt lat="46.96389" lon="6.00185">
        <ele>656</ele>
        <time>2022-06-05T02:00:05Z</time>
      </trkpt>
      <trkpt lat="46.96417" lon="6.00244">
        <ele>669</ele>
        <time>2022-06-05T02:00:44Z</time>
      </trkpt>
      <trkpt lat="46.96456" lon="6.00299">
        <ele>667</ele>
        <time>2022-06-05T02:01:28Z</time>
      </trkpt>
      <trkpt lat="46.96512" lon="6.00293">
        <ele>678</ele>
        <time>2022-06-05T02:02:13Z</time>
      </trkpt>
      <trkpt lat="46.96586" lon="6.00274">
        <ele>669</ele>
        <time>2022-06-05T02:03:13Z</time>
      </trkpt>
      <trkpt lat="46.96573" lon="6.00201">
        <ele>675</ele>
        <time>2022-06-05T02:03:55Z</time>
      </trkpt>
      <trkpt lat="46.96532" lon="6.0012">
        <ele>678</ele>
        <time>2022-06-05T02:04:50Z</time>
      </trkpt>
      <trkpt lat="46.96486" lon="6.00047">
        <ele>684</ele>
        <time>2022-06-05T02:05:45Z</time>
      </trkpt>
      <trkpt lat="46.96465" lon="5.99918">
        <ele>668</ele>
        <time>2022-06-05T02:06:57Z</time>
      </trkpt>
      <trkpt lat="46.96465" lon="5.99811">
        <ele>661</ele>
        <time>2022-06-05T02:07:56Z</time>
      </trkpt>
      <trkpt lat="46.96442" lon="5.99764">
        <ele>664</ele>
        <time>2022-06-05T02:08:28Z</time>
      </trkpt>
      <trkpt lat="46.96413" lon="5.99646">
        <ele>678</ele>
        <time>2022-06-05T02:09:36Z</time>
      </trkpt>
      <trkpt lat="46.96389" lon="5.99601">
        <ele>673</ele>
        <time>2022-06-05T02:10:07Z</time>
      </trkpt>
      <trkpt lat="46.96355" lon="5.99548">
        <ele>671</ele>
        <time>2022-06-05T02:10:47Z</time>
      </trkpt>
      <trkpt lat="46.96322" lon="5.99508">
        <ele>671</ele>
        <time>2022-06-05T02:11:21Z</time>
      </trkpt>
      <trkpt lat="46.96333" lon="5.99511">
        <ele>674</ele>
        <time>2022-06-05T02:11:31Z</time>
      </trkpt>
      <trkpt lat="46.96347" lon="5.99503">
        <ele>674</ele>
        <time>2022-06-05T02:11:42Z</time>
      </trkpt>
      <trkpt lat="46.96381" lon="5.99466">
        <ele>671</ele>
        <time>2022-06-05T02:12:16Z</time>
      </trkpt>
      <trkpt lat="46.96394" lon="5.99443">
        <ele>669</ele>
        <time>2022-06-05T02:12:33Z</time>
      </trkpt>
      <trkpt lat="46.96398" lon="5.99416">
        <ele>667</ele>
        <time>2022-06-05T02:12:48Z</time>
      </trkpt>
      <trkpt lat="46.96409" lon="5.99401">
        <ele>666</ele>
        <time>2022-06-05T02:13:00Z</time>
      </trkpt>
      <trkpt lat="46.9642" lon="5.99391">
        <ele>664</ele>
        <time>2022-06-05T02:13:10Z</time>
      </trkpt>
      <trkpt lat="46.96424" lon="5.99506">
        <ele>665</ele>
        <time>2022-06-05T02:14:13Z</time>
      </trkpt>
      <trkpt lat="46.96454" lon="5.995">
        <ele>650</ele>
        <time>2022-06-05T02:14:37Z</time>
      </trkpt>
      <trkpt lat="46.96497" lon="5.99421">
        <ele>647</ele>
        <time>2022-06-05T02:15:33Z</time>
      </trkpt>
      <trkpt lat="46.96504" lon="5.99563">
        <ele>621</ele>
        <time>2022-06-05T02:16:50Z</time>
      </trkpt>
      <trkpt lat="46.96532" lon="5.99595">
        <ele>608</ele>
        <time>2022-06-05T02:17:19Z</time>
      </trkpt>
      <trkpt lat="46.96569" lon="5.99586">
        <ele>591</ele>
        <time>2022-06-05T02:17:49Z</time>
      </trkpt>
      <trkpt lat="46.96586" lon="5.99511">
        <ele>578</ele>
        <time>2022-06-05T02:18:32Z</time>
      </trkpt>
      <trkpt lat="46.9662" lon="5.99511">
        <ele>563</ele>
        <time>2022-06-05T02:18:59Z</time>
      </trkpt>
      <trkpt lat="46.96623" lon="5.99487">
        <ele>561</ele>
        <time>2022-06-05T02:19:12Z</time>
      </trkpt>
      <trkpt lat="46.96648" lon="5.99484">
        <ele>549</ele>
        <time>2022-06-05T02:19:33Z</time>
      </trkpt>
      <trkpt lat="46.96764" lon="5.99607">
        <ele>494</ele>
        <time>2022-06-05T02:21:27Z</time>
      </trkpt>
      <trkpt lat="46.96774" lon="5.99708">
        <ele>494</ele>
        <time>2022-06-05T02:22:23Z</time>
      </trkpt>
      <trkpt lat="46.96815" lon="5.99712">
        <ele>470</ele>
        <time>2022-06-05T02:22:57Z</time>
      </trkpt>
      <trkpt lat="46.96907" lon="5.99763">
        <ele>440</ele>
        <time>2022-06-05T02:24:15Z</time>
      </trkpt>
      <trkpt lat="46.96971" lon="5.99766">
        <ele>421</ele>
        <time>2022-06-05T02:25:06Z</time>
      </trkpt>
      <trkpt lat="46.97087" lon="5.99827">
        <ele>401</ele>
        <time>2022-06-05T02:26:46Z</time>
      </trkpt>
      <trkpt lat="46.97148" lon="5.99844">
        <ele>389</ele>
        <time>2022-06-05T02:27:35Z</time>
      </trkpt>
      <trkpt lat="46.97197" lon="5.99844">
        <ele>380</ele>
        <time>2022-06-05T02:28:14Z</time>
      </trkpt>
      <trkpt lat="46.9725" lon="5.99814">
        <ele>371</ele>
        <time>2022-06-05T02:29:00Z</time>
      </trkpt>
      <trkpt lat="46.97252" lon="5.99809">
        <ele>371</ele>
        <time>2022-06-05T02:29:03Z</time>
      </trkpt>
      <trkpt lat="46.97245" lon="5.99827">
        <ele>372</ele>
        <time>2022-06-05T02:29:15Z</time>
      </trkpt>
      <trkpt lat="46.97221" lon="5.99863">
        <ele>374</ele>
        <time>2022-06-05T02:29:42Z</time>
      </trkpt>
      <trkpt lat="46.97205" lon="5.99875">
        <ele>376</ele>
        <time>2022-06-05T02:29:56Z</time>
      </trkpt>
      <trkpt lat="46.97181" lon="5.99882">
        <ele>378</ele>
        <time>2022-06-05T02:30:16Z</time>
      </trkpt>
      <trkpt lat="46.97152" lon="5.99903">
        <ele>381</ele>
        <time>2022-06-05T02:30:42Z</time>
      </trkpt>
      <trkpt lat="46.9712" lon="5.99937">
        <ele>387</ele>
        <time>2022-06-05T02:31:14Z</time>
      </trkpt>
      <trkpt lat="46.97105" lon="5.99962">
        <ele>388</ele>
        <time>2022-06-05T02:31:32Z</time>
      </trkpt>
      <trkpt lat="46.97092" lon="5.99992">
        <ele>386</ele>
        <time>2022-06-05T02:31:52Z</time>
      </trkpt>
      <trkpt lat="46.97077" lon="6.00059">
        <ele>383</ele>
        <time>2022-06-05T02:32:30Z</time>
      </trkpt>
      <trkpt lat="46.97069" lon="6.00112">
        <ele>382</ele>
        <time>2022-06-05T02:32:59Z</time>
      </trkpt>
      <trkpt lat="46.97052" lon="6.00175">
        <ele>383</ele>
        <time>2022-06-05T02:33:37Z</time>
      </trkpt>
      <trkpt lat="46.97029" lon="6.00212">
        <ele>388</ele>
        <time>2022-06-05T02:34:04Z</time>
      </trkpt>
      <trkpt lat="46.97011" lon="6.00255">
        <ele>387</ele>
        <time>2022-06-05T02:34:31Z</time>
      </trkpt>
      <trkpt lat="46.97007" lon="6.00288">
        <ele>385</ele>
        <time>2022-06-05T02:34:50Z</time>
      </trkpt>
      <trkpt lat="46.96975" lon="6.00383">
        <ele>389</ele>
        <time>2022-06-05T02:35:48Z</time>
      </trkpt>
      <trkpt lat="46.96969" lon="6.00409">
        <ele>387</ele>
        <time>2022-06-05T02:36:03Z</time>
      </trkpt>
      <trkpt lat="46.96941" lon="6.00429">
        <ele>395</ele>
        <time>2022-06-05T02:36:27Z</time>
      </trkpt>
      <trkpt lat="46.96931" lon="6.00455">
        <ele>393</ele>
        <time>2022-06-05T02:36:44Z</time>
      </trkpt>
      <trkpt lat="46.96907" lon="6.00489">
        <ele>395</ele>
        <time>2022-06-05T02:37:11Z</time>
      </trkpt>
      <trkpt lat="46.96881" lon="6.00506">
        <ele>406</ele>
        <time>2022-06-05T02:37:33Z</time>
      </trkpt>
      <trkpt lat="46.96802" lon="6.00671">
        <ele>408</ele>
        <time>2022-06-05T02:39:24Z</time>
      </trkpt>
      <trkpt lat="46.9676" lon="6.00817">
        <ele>398</ele>
        <time>2022-06-05T02:40:50Z</time>
      </trkpt>
      <trkpt lat="46.96768" lon="6.00841">
        <ele>394</ele>
        <time>2022-06-05T02:41:05Z</time>
      </trkpt>
      <trkpt lat="46.96747" lon="6.00883">
        <ele>391</ele>
        <time>2022-06-05T02:41:34Z</time>
      </trkpt>
      <trkpt lat="46.96714" lon="6.00931">
        <ele>388</ele>
        <time>2022-06-05T02:42:11Z</time>
      </trkpt>
      <trkpt lat="46.96663" lon="6.0091">
        <ele>396</ele>
        <time>2022-06-05T02:42:53Z</time>
      </trkpt>
      <trkpt lat="46.96649" lon="6.00887">
        <ele>409</ele>
        <time>2022-06-05T02:43:10Z</time>
      </trkpt>
      <trkpt lat="46.9662" lon="6.0086">
        <ele>433</ele>
        <time>2022-06-05T02:43:38Z</time>
      </trkpt>
      <trkpt lat="46.96593" lon="6.00844">
        <ele>454</ele>
        <time>2022-06-05T02:44:01Z</time>
      </trkpt>
      <trkpt lat="46.9656" lon="6.00852">
        <ele>480</ele>
        <time>2022-06-05T02:44:28Z</time>
      </trkpt>
      <trkpt lat="46.96593" lon="6.00844">
        <ele>454</ele>
        <time>2022-06-05T02:44:55Z</time>
      </trkpt>
      <trkpt lat="46.9662" lon="6.0086">
        <ele>433</ele>
        <time>2022-06-05T02:45:18Z</time>
      </trkpt>
      <trkpt lat="46.96649" lon="6.00887">
        <ele>409</ele>
        <time>2022-06-05T02:45:46Z</time>
      </trkpt>
      <trkpt lat="46.96663" lon="6.0091">
        <ele>396</ele>
        <time>2022-06-05T02:46:03Z</time>
      </trkpt>
      <trkpt lat="46.96662" lon="6.00936">
        <ele>394</ele>
        <time>2022-06-05T02:46:17Z</time>
      </trkpt>
      <trkpt lat="46.96664" lon="6.00949">
        <ele>392</ele>
        <time>2022-06-05T02:46:24Z</time>
      </trkpt>
      <trkpt lat="46.96682" lon="6.0098">
        <ele>388</ele>
        <time>2022-06-05T02:46:47Z</time>
      </trkpt>
      <trkpt lat="46.9671" lon="6.00997">
        <ele>384</ele>
        <time>2022-06-05T02:47:11Z</time>
      </trkpt>
      <trkpt lat="46.96711" lon="6.01008">
        <ele>384</ele>
        <time>2022-06-05T02:47:17Z</time>
      </trkpt>
      <trkpt lat="46.96703" lon="6.01016">
        <ele>385</ele>
        <time>2022-06-05T02:47:25Z</time>
      </trkpt>
      <trkpt lat="46.96687" lon="6.01028">
        <ele>387</ele>
        <time>2022-06-05T02:47:39Z</time>
      </trkpt>
      <trkpt lat="46.96673" lon="6.01042">
        <ele>388</ele>
        <time>2022-06-05T02:47:53Z</time>
      </trkpt>
      <trkpt lat="46.96678" lon="6.01059">
        <ele>388</ele>
        <time>2022-06-05T02:48:04Z</time>
      </trkpt>
      <trkpt lat="46.96683" lon="6.01083">
        <ele>388</ele>
        <time>2022-06-05T02:48:17Z</time>
      </trkpt>
      <trkpt lat="46.96686" lon="6.01094">
        <ele>391</ele>
        <time>2022-06-05T02:48:24Z</time>
      </trkpt>
      <trkpt lat="46.96694" lon="6.01089">
        <ele>390</ele>
        <time>2022-06-05T02:48:31Z</time>
      </trkpt>
      <trkpt lat="46.96718" lon="6.01063">
        <ele>388</ele>
        <time>2022-06-05T02:48:55Z</time>
      </trkpt>
      <trkpt lat="46.9673" lon="6.01045">
        <ele>386</ele>
        <time>2022-06-05T02:49:08Z</time>
      </trkpt>
      <trkpt lat="46.96736" lon="6.01039">
        <ele>385</ele>
        <time>2022-06-05T02:49:14Z</time>
      </trkpt>
    </trkseg>
  </trk>
</gpx>